sensor_id;sensor_type;location;lat;lon;timestamp;temperature;humidity
4376;DHT22;2202;50.866;12.750;2024-03-07T00:00:09;3.60;79.20
4376;DHT22;2202;50.866;12.750;2024-03-07T00:02:44;3.60;79.80
4376;DHT22;2202;50.866;12.750;2024-03-07T00:05:12;3.60;80.40
4376;DHT22;2202;50.866;12.750;2024-03-07T00:07:39;3.60;80.00
4376;DHT22;2202;50.866;12.750;2024-03-07T00:10:07;3.60;80.40
4376;DHT22;2202;50.866;12.750;2024-03-07T00:12:35;3.60;80.80
4376;DHT22;2202;50.866;12.750;2024-03-07T00:15:05;3.60;80.80
4376;DHT22;2202;50.866;12.750;2024-03-07T00:17:32;3.60;80.20
4376;DHT22;2202;50.866;12.750;2024-03-07T00:20:01;3.60;80.20
4376;DHT22;2202;50.866;12.750;2024-03-07T00:22:29;3.60;80.40
4376;DHT22;2202;50.866;12.750;2024-03-07T00:24:57;3.60;80.40
4376;DHT22;2202;50.866;12.750;2024-03-07T00:27:24;3.60;80.40
4376;DHT22;2202;50.866;12.750;2024-03-07T00:29:52;3.60;80.40
4376;DHT22;2202;50.866;12.750;2024-03-07T00:32:19;3.60;80.20
4376;DHT22;2202;50.866;12.750;2024-03-07T00:34:47;3.60;80.20
4376;DHT22;2202;50.866;12.750;2024-03-07T00:37:15;3.60;80.40
4376;DHT22;2202;50.866;12.750;2024-03-07T00:39:43;3.60;80.40
4376;DHT22;2202;50.866;12.750;2024-03-07T00:42:10;3.60;81.20
4376;DHT22;2202;50.866;12.750;2024-03-07T00:44:37;3.60;80.40
4376;DHT22;2202;50.866;12.750;2024-03-07T00:47:04;3.60;80.80
4376;DHT22;2202;50.866;12.750;2024-03-07T00:49:31;3.60;81.40
4376;DHT22;2202;50.866;12.750;2024-03-07T00:51:58;3.60;81.80
4376;DHT22;2202;50.866;12.750;2024-03-07T00:54:26;3.60;82.00
4376;DHT22;2202;50.866;12.750;2024-03-07T00:56:53;3.60;81.40
4376;DHT22;2202;50.866;12.750;2024-03-07T00:59:21;3.60;81.20
4376;DHT22;2202;50.866;12.750;2024-03-07T01:01:48;3.60;81.40
4376;DHT22;2202;50.866;12.750;2024-03-07T01:04:15;3.60;81.60
4376;DHT22;2202;50.866;12.750;2024-03-07T01:06:43;3.60;81.60
4376;DHT22;2202;50.866;12.750;2024-03-07T01:09:09;3.60;82.00
4376;DHT22;2202;50.866;12.750;2024-03-07T01:11:42;3.60;82.00
4376;DHT22;2202;50.866;12.750;2024-03-07T01:14:09;3.60;82.20
4376;DHT22;2202;50.866;12.750;2024-03-07T01:16:36;3.60;82.40
4376;DHT22;2202;50.866;12.750;2024-03-07T01:19:03;3.60;82.00
4376;DHT22;2202;50.866;12.750;2024-03-07T01:21:31;3.60;82.80
4376;DHT22;2202;50.866;12.750;2024-03-07T01:23:58;3.60;83.00
4376;DHT22;2202;50.866;12.750;2024-03-07T01:26:25;3.60;83.20
4376;DHT22;2202;50.866;12.750;2024-03-07T01:28:55;3.50;84.00
4376;DHT22;2202;50.866;12.750;2024-03-07T01:31:22;3.50;84.20
4376;DHT22;2202;50.866;12.750;2024-03-07T01:33:50;3.60;84.40
4376;DHT22;2202;50.866;12.750;2024-03-07T01:36:17;3.60;84.60
4376;DHT22;2202;50.866;12.750;2024-03-07T01:38:44;3.60;84.40
4376;DHT22;2202;50.866;12.750;2024-03-07T01:41:10;3.50;85.00
4376;DHT22;2202;50.866;12.750;2024-03-07T01:43:37;3.60;84.80
4376;DHT22;2202;50.866;12.750;2024-03-07T01:46:05;3.40;84.80
4376;DHT22;2202;50.866;12.750;2024-03-07T01:48:34;3.50;85.80
4376;DHT22;2202;50.866;12.750;2024-03-07T01:51:01;3.50;86.80
4376;DHT22;2202;50.866;12.750;2024-03-07T01:53:30;3.50;87.20
4376;DHT22;2202;50.866;12.750;2024-03-07T01:55:58;3.40;88.00
4376;DHT22;2202;50.866;12.750;2024-03-07T01:58:26;3.40;88.40
4376;DHT22;2202;50.866;12.750;2024-03-07T02:00:53;3.50;89.00
4376;DHT22;2202;50.866;12.750;2024-03-07T02:03:21;3.50;89.40
4376;DHT22;2202;50.866;12.750;2024-03-07T02:05:48;3.40;90.20
4376;DHT22;2202;50.866;12.750;2024-03-07T02:08:16;3.40;90.60
4376;DHT22;2202;50.866;12.750;2024-03-07T02:10:43;3.30;91.10
4376;DHT22;2202;50.866;12.750;2024-03-07T02:13:10;3.20;91.70
4376;DHT22;2202;50.866;12.750;2024-03-07T02:15:36;3.10;92.10
4376;DHT22;2202;50.866;12.750;2024-03-07T02:18:04;3.20;92.50
4376;DHT22;2202;50.866;12.750;2024-03-07T02:20:32;3.10;92.80
4376;DHT22;2202;50.866;12.750;2024-03-07T02:23:00;3.10;92.90
4376;DHT22;2202;50.866;12.750;2024-03-07T02:25:28;3.00;93.40
4376;DHT22;2202;50.866;12.750;2024-03-07T02:27:55;3.00;94.00
4376;DHT22;2202;50.866;12.750;2024-03-07T02:30:22;3.10;94.40
4376;DHT22;2202;50.866;12.750;2024-03-07T02:32:49;3.10;94.40
4376;DHT22;2202;50.866;12.750;2024-03-07T02:35:20;3.10;94.40
4376;DHT22;2202;50.866;12.750;2024-03-07T02:37:47;3.20;94.40
4376;DHT22;2202;50.866;12.750;2024-03-07T02:40:15;3.20;94.50
4376;DHT22;2202;50.866;12.750;2024-03-07T02:42:42;3.10;94.90
4376;DHT22;2202;50.866;12.750;2024-03-07T02:45:09;3.10;95.10
4376;DHT22;2202;50.866;12.750;2024-03-07T02:47:40;3.20;95.20
4376;DHT22;2202;50.866;12.750;2024-03-07T02:50:08;3.20;95.20
4376;DHT22;2202;50.866;12.750;2024-03-07T02:52:35;3.30;95.20
4376;DHT22;2202;50.866;12.750;2024-03-07T02:55:02;3.40;95.10
4376;DHT22;2202;50.866;12.750;2024-03-07T02:57:32;3.40;95.10
4376;DHT22;2202;50.866;12.750;2024-03-07T02:59:59;3.50;95.00
4376;DHT22;2202;50.866;12.750;2024-03-07T03:02:26;3.50;95.00
4376;DHT22;2202;50.866;12.750;2024-03-07T03:04:53;3.50;94.80
4376;DHT22;2202;50.866;12.750;2024-03-07T03:07:21;3.50;95.00
4376;DHT22;2202;50.866;12.750;2024-03-07T03:09:47;3.50;94.90
4376;DHT22;2202;50.866;12.750;2024-03-07T03:12:14;3.40;94.90
4376;DHT22;2202;50.866;12.750;2024-03-07T03:14:43;3.30;95.10
4376;DHT22;2202;50.866;12.750;2024-03-07T03:17:10;3.20;95.40
4376;DHT22;2202;50.866;12.750;2024-03-07T03:19:36;3.30;95.70
4376;DHT22;2202;50.866;12.750;2024-03-07T03:22:03;3.30;95.90
4376;DHT22;2202;50.866;12.750;2024-03-07T03:24:30;3.40;95.70
4376;DHT22;2202;50.866;12.750;2024-03-07T03:26:57;3.40;95.80
4376;DHT22;2202;50.866;12.750;2024-03-07T03:29:24;3.30;95.80
4376;DHT22;2202;50.866;12.750;2024-03-07T03:31:55;3.20;96.00
4376;DHT22;2202;50.866;12.750;2024-03-07T03:34:22;3.20;96.20
4376;DHT22;2202;50.866;12.750;2024-03-07T03:36:49;3.30;96.30
4376;DHT22;2202;50.866;12.750;2024-03-07T03:39:16;3.30;96.20
4376;DHT22;2202;50.866;12.750;2024-03-07T03:41:46;3.30;96.20
4376;DHT22;2202;50.866;12.750;2024-03-07T03:44:13;3.20;96.30
4376;DHT22;2202;50.866;12.750;2024-03-07T03:46:41;3.20;96.60
4376;DHT22;2202;50.866;12.750;2024-03-07T03:49:09;3.20;96.70
4376;DHT22;2202;50.866;12.750;2024-03-07T03:51:37;3.10;97.00
4376;DHT22;2202;50.866;12.750;2024-03-07T03:54:03;3.00;97.30
4376;DHT22;2202;50.866;12.750;2024-03-07T03:56:31;3.10;97.40
4376;DHT22;2202;50.866;12.750;2024-03-07T03:58:58;3.20;97.30
4376;DHT22;2202;50.866;12.750;2024-03-07T04:01:25;3.30;97.20
4376;DHT22;2202;50.866;12.750;2024-03-07T04:03:51;3.20;97.10
4376;DHT22;2202;50.866;12.750;2024-03-07T04:06:20;3.10;97.50
4376;DHT22;2202;50.866;12.750;2024-03-07T04:08:47;3.20;97.50
4376;DHT22;2202;50.866;12.750;2024-03-07T04:11:14;3.30;97.70
4376;DHT22;2202;50.866;12.750;2024-03-07T04:13:40;3.30;97.50
4376;DHT22;2202;50.866;12.750;2024-03-07T04:16:07;3.40;97.50
4376;DHT22;2202;50.866;12.750;2024-03-07T04:18:34;3.40;97.40
4376;DHT22;2202;50.866;12.750;2024-03-07T04:21:02;3.40;97.60
4376;DHT22;2202;50.866;12.750;2024-03-07T04:23:30;3.30;97.70
4376;DHT22;2202;50.866;12.750;2024-03-07T04:25:57;3.30;98.00
4376;DHT22;2202;50.866;12.750;2024-03-07T04:28:24;3.30;97.90
4376;DHT22;2202;50.866;12.750;2024-03-07T04:30:51;3.30;98.10
4376;DHT22;2202;50.866;12.750;2024-03-07T04:33:18;3.40;98.00
4376;DHT22;2202;50.866;12.750;2024-03-07T04:35:46;3.50;98.10
4376;DHT22;2202;50.866;12.750;2024-03-07T04:38:13;3.50;98.00
4376;DHT22;2202;50.866;12.750;2024-03-07T04:40:42;3.50;98.00
4376;DHT22;2202;50.866;12.750;2024-03-07T04:43:08;3.50;98.20
4376;DHT22;2202;50.866;12.750;2024-03-07T04:45:36;3.50;98.20
4376;DHT22;2202;50.866;12.750;2024-03-07T04:48:03;3.50;98.20
4376;DHT22;2202;50.866;12.750;2024-03-07T04:50:30;3.50;98.20
4376;DHT22;2202;50.866;12.750;2024-03-07T04:52:57;3.40;98.20
4376;DHT22;2202;50.866;12.750;2024-03-07T04:55:24;3.40;98.30
4376;DHT22;2202;50.866;12.750;2024-03-07T04:57:52;3.40;98.40
4376;DHT22;2202;50.866;12.750;2024-03-07T05:00:22;3.50;98.50
4376;DHT22;2202;50.866;12.750;2024-03-07T05:02:49;3.50;98.50
4376;DHT22;2202;50.866;12.750;2024-03-07T05:05:16;3.50;98.60
4376;DHT22;2202;50.866;12.750;2024-03-07T05:07:48;3.50;98.80
4376;DHT22;2202;50.866;12.750;2024-03-07T05:10:15;3.50;98.60
4376;DHT22;2202;50.866;12.750;2024-03-07T05:12:42;3.60;98.90
4376;DHT22;2202;50.866;12.750;2024-03-07T05:15:10;3.60;98.80
4376;DHT22;2202;50.866;12.750;2024-03-07T05:17:37;3.60;98.80
4376;DHT22;2202;50.866;12.750;2024-03-07T05:20:06;3.60;99.00
4376;DHT22;2202;50.866;12.750;2024-03-07T05:22:35;3.60;99.00
4376;DHT22;2202;50.866;12.750;2024-03-07T05:25:05;3.70;99.00
4376;DHT22;2202;50.866;12.750;2024-03-07T05:27:32;3.70;99.00
4376;DHT22;2202;50.866;12.750;2024-03-07T05:29:59;3.80;98.90
4376;DHT22;2202;50.866;12.750;2024-03-07T05:32:27;3.80;98.80
4376;DHT22;2202;50.866;12.750;2024-03-07T05:34:54;3.80;98.90
4376;DHT22;2202;50.866;12.750;2024-03-07T05:37:21;3.80;99.00
4376;DHT22;2202;50.866;12.750;2024-03-07T05:39:49;3.80;99.00
4376;DHT22;2202;50.866;12.750;2024-03-07T05:42:16;3.90;98.80
4376;DHT22;2202;50.866;12.750;2024-03-07T05:44:43;3.90;98.70
4376;DHT22;2202;50.866;12.750;2024-03-07T05:47:10;3.90;98.70
4376;DHT22;2202;50.866;12.750;2024-03-07T05:49:40;3.90;98.70
4376;DHT22;2202;50.866;12.750;2024-03-07T05:52:07;3.80;98.80
4376;DHT22;2202;50.866;12.750;2024-03-07T05:54:34;3.90;98.90
4376;DHT22;2202;50.866;12.750;2024-03-07T05:57:02;3.90;98.90
4376;DHT22;2202;50.866;12.750;2024-03-07T05:59:29;3.90;98.90
4376;DHT22;2202;50.866;12.750;2024-03-07T06:01:57;3.90;98.90
4376;DHT22;2202;50.866;12.750;2024-03-07T06:04:24;3.80;98.80
4376;DHT22;2202;50.866;12.750;2024-03-07T06:06:52;3.80;98.80
4376;DHT22;2202;50.866;12.750;2024-03-07T06:09:19;3.80;98.70
4376;DHT22;2202;50.866;12.750;2024-03-07T06:11:48;3.80;98.60
4376;DHT22;2202;50.866;12.750;2024-03-07T06:14:15;3.80;98.40
4376;DHT22;2202;50.866;12.750;2024-03-07T06:16:42;3.80;98.40
4376;DHT22;2202;50.866;12.750;2024-03-07T06:19:09;3.80;98.30
4376;DHT22;2202;50.866;12.750;2024-03-07T06:21:37;3.80;98.40
4376;DHT22;2202;50.866;12.750;2024-03-07T06:24:07;3.70;98.30
4376;DHT22;2202;50.866;12.750;2024-03-07T06:26:37;3.80;98.20
4376;DHT22;2202;50.866;12.750;2024-03-07T06:29:12;3.80;97.90
4376;DHT22;2202;50.866;12.750;2024-03-07T06:31:39;3.80;97.40
4376;DHT22;2202;50.866;12.750;2024-03-07T06:34:06;3.70;97.20
4376;DHT22;2202;50.866;12.750;2024-03-07T06:36:33;3.70;97.40
4376;DHT22;2202;50.866;12.750;2024-03-07T06:39:00;3.70;97.40
4376;DHT22;2202;50.866;12.750;2024-03-07T06:41:29;3.70;97.30
4376;DHT22;2202;50.866;12.750;2024-03-07T06:43:56;3.70;97.10
4376;DHT22;2202;50.866;12.750;2024-03-07T06:46:23;3.70;96.50
4376;DHT22;2202;50.866;12.750;2024-03-07T06:48:50;3.60;96.20
4376;DHT22;2202;50.866;12.750;2024-03-07T06:51:18;3.50;96.20
4376;DHT22;2202;50.866;12.750;2024-03-07T06:53:45;3.50;96.40
4376;DHT22;2202;50.866;12.750;2024-03-07T06:56:12;3.60;96.50
4376;DHT22;2202;50.866;12.750;2024-03-07T06:58:40;3.60;96.30
4376;DHT22;2202;50.866;12.750;2024-03-07T07:01:08;3.60;96.10
4376;DHT22;2202;50.866;12.750;2024-03-07T07:03:36;3.70;95.80
4376;DHT22;2202;50.866;12.750;2024-03-07T07:06:04;3.70;95.60
4376;DHT22;2202;50.866;12.750;2024-03-07T07:08:31;3.80;96.20
4376;DHT22;2202;50.866;12.750;2024-03-07T07:10:58;4.20;95.60
4376;DHT22;2202;50.866;12.750;2024-03-07T07:13:25;4.50;94.70
4376;DHT22;2202;50.866;12.750;2024-03-07T07:15:53;4.90;93.70
4376;DHT22;2202;50.866;12.750;2024-03-07T07:18:20;5.30;92.20
4376;DHT22;2202;50.866;12.750;2024-03-07T07:20:49;5.30;90.10
4376;DHT22;2202;50.866;12.750;2024-03-07T07:23:17;5.20;89.60
4376;DHT22;2202;50.866;12.750;2024-03-07T07:25:45;5.10;89.60
4376;DHT22;2202;50.866;12.750;2024-03-07T07:28:12;5.10;88.80
4376;DHT22;2202;50.866;12.750;2024-03-07T07:30:39;4.90;88.20
4376;DHT22;2202;50.866;12.750;2024-03-07T07:33:07;4.80;89.40
4376;DHT22;2202;50.866;12.750;2024-03-07T07:35:34;4.70;90.00
4376;DHT22;2202;50.866;12.750;2024-03-07T07:38:01;4.80;89.80
4376;DHT22;2202;50.866;12.750;2024-03-07T07:40:27;4.80;88.80
4376;DHT22;2202;50.866;12.750;2024-03-07T07:42:56;4.80;87.80
4376;DHT22;2202;50.866;12.750;2024-03-07T07:45:24;4.70;88.60
4376;DHT22;2202;50.866;12.750;2024-03-07T07:47:52;4.50;87.60
4376;DHT22;2202;50.866;12.750;2024-03-07T07:50:21;4.30;88.40
4376;DHT22;2202;50.866;12.750;2024-03-07T07:52:49;4.50;89.20
4376;DHT22;2202;50.866;12.750;2024-03-07T07:55:17;4.90;86.60
4376;DHT22;2202;50.866;12.750;2024-03-07T07:57:46;5.10;84.60
4376;DHT22;2202;50.866;12.750;2024-03-07T08:00:15;5.10;85.40
4376;DHT22;2202;50.866;12.750;2024-03-07T08:02:53;5.10;83.60
4376;DHT22;2202;50.866;12.750;2024-03-07T08:05:22;5.10;80.60
4376;DHT22;2202;50.866;12.750;2024-03-07T08:07:50;4.80;81.40
4376;DHT22;2202;50.866;12.750;2024-03-07T08:10:18;4.60;83.40
4376;DHT22;2202;50.866;12.750;2024-03-07T08:12:45;4.40;84.80
4376;DHT22;2202;50.866;12.750;2024-03-07T08:15:14;4.40;85.80
4376;DHT22;2202;50.866;12.750;2024-03-07T08:17:41;4.20;86.60
4376;DHT22;2202;50.866;12.750;2024-03-07T08:20:11;4.10;87.80
4376;DHT22;2202;50.866;12.750;2024-03-07T08:22:39;3.90;87.20
4376;DHT22;2202;50.866;12.750;2024-03-07T08:25:08;3.70;88.20
4376;DHT22;2202;50.866;12.750;2024-03-07T08:27:36;3.70;89.40
4376;DHT22;2202;50.866;12.750;2024-03-07T08:30:04;3.70;89.80
4376;DHT22;2202;50.866;12.750;2024-03-07T08:32:32;3.60;90.00
4376;DHT22;2202;50.866;12.750;2024-03-07T08:35:03;3.60;90.40
4376;DHT22;2202;50.866;12.750;2024-03-07T08:37:33;3.70;89.80
4376;DHT22;2202;50.866;12.750;2024-03-07T08:40:02;3.80;89.80
4376;DHT22;2202;50.866;12.750;2024-03-07T08:42:32;3.80;90.10
4376;DHT22;2202;50.866;12.750;2024-03-07T08:44:59;4.10;89.80
4376;DHT22;2202;50.866;12.750;2024-03-07T08:47:26;4.50;88.40
4376;DHT22;2202;50.866;12.750;2024-03-07T08:49:54;4.90;84.80
4376;DHT22;2202;50.866;12.750;2024-03-07T08:52:21;5.00;80.00
4376;DHT22;2202;50.866;12.750;2024-03-07T08:54:49;5.00;79.60
4376;DHT22;2202;50.866;12.750;2024-03-07T08:57:17;5.10;78.60
4376;DHT22;2202;50.866;12.750;2024-03-07T08:59:45;5.00;77.40
4376;DHT22;2202;50.866;12.750;2024-03-07T09:02:12;4.80;76.40
4376;DHT22;2202;50.866;12.750;2024-03-07T09:04:39;4.50;77.60
4376;DHT22;2202;50.866;12.750;2024-03-07T09:07:06;4.50;80.40
4376;DHT22;2202;50.866;12.750;2024-03-07T09:09:33;4.40;78.40
4376;DHT22;2202;50.866;12.750;2024-03-07T09:12:00;4.50;78.40
4376;DHT22;2202;50.866;12.750;2024-03-07T09:14:29;4.50;79.00
4376;DHT22;2202;50.866;12.750;2024-03-07T09:16:57;4.70;79.80
4376;DHT22;2202;50.866;12.750;2024-03-07T09:19:24;4.80;77.00
4376;DHT22;2202;50.866;12.750;2024-03-07T09:21:51;4.60;74.20
4376;DHT22;2202;50.866;12.750;2024-03-07T09:24:19;4.60;74.80
4376;DHT22;2202;50.866;12.750;2024-03-07T09:26:47;4.50;75.40
4376;DHT22;2202;50.866;12.750;2024-03-07T09:29:15;4.40;75.80
4376;DHT22;2202;50.866;12.750;2024-03-07T09:31:44;4.30;75.40
4376;DHT22;2202;50.866;12.750;2024-03-07T09:34:12;4.30;75.80
4376;DHT22;2202;50.866;12.750;2024-03-07T09:36:40;4.30;74.60
4376;DHT22;2202;50.866;12.750;2024-03-07T09:39:07;4.30;74.00
4376;DHT22;2202;50.866;12.750;2024-03-07T09:41:35;4.40;74.20
4376;DHT22;2202;50.866;12.750;2024-03-07T09:44:02;4.30;74.40
4376;DHT22;2202;50.866;12.750;2024-03-07T09:46:30;4.20;70.60
4376;DHT22;2202;50.866;12.750;2024-03-07T09:49:00;4.20;72.60
4376;DHT22;2202;50.866;12.750;2024-03-07T09:51:28;4.20;73.60
4376;DHT22;2202;50.866;12.750;2024-03-07T09:53:57;4.20;72.00
4376;DHT22;2202;50.866;12.750;2024-03-07T09:56:27;4.30;68.60
4376;DHT22;2202;50.866;12.750;2024-03-07T09:58:58;4.20;68.60
4376;DHT22;2202;50.866;12.750;2024-03-07T10:01:26;4.10;68.60
4376;DHT22;2202;50.866;12.750;2024-03-07T10:04:00;4.00;69.40
4376;DHT22;2202;50.866;12.750;2024-03-07T10:06:31;4.00;70.40
4376;DHT22;2202;50.866;12.750;2024-03-07T10:08:58;4.10;69.80
4376;DHT22;2202;50.866;12.750;2024-03-07T10:11:25;4.20;67.40
4376;DHT22;2202;50.866;12.750;2024-03-07T10:13:53;4.10;67.40
4376;DHT22;2202;50.866;12.750;2024-03-07T10:16:20;4.00;66.20
4376;DHT22;2202;50.866;12.750;2024-03-07T10:18:48;4.10;67.40
4376;DHT22;2202;50.866;12.750;2024-03-07T10:21:19;4.10;68.20
4376;DHT22;2202;50.866;12.750;2024-03-07T10:23:45;4.20;68.00
4376;DHT22;2202;50.866;12.750;2024-03-07T10:26:12;4.30;67.20
4376;DHT22;2202;50.866;12.750;2024-03-07T10:28:39;4.20;67.60
4376;DHT22;2202;50.866;12.750;2024-03-07T10:31:06;4.40;66.80
4376;DHT22;2202;50.866;12.750;2024-03-07T10:33:36;4.50;64.40
4376;DHT22;2202;50.866;12.750;2024-03-07T10:36:05;4.50;62.60
4376;DHT22;2202;50.866;12.750;2024-03-07T10:38:37;4.50;64.60
4376;DHT22;2202;50.866;12.750;2024-03-07T10:41:06;4.50;64.20
4376;DHT22;2202;50.866;12.750;2024-03-07T10:43:36;4.60;63.00
4376;DHT22;2202;50.866;12.750;2024-03-07T10:46:09;4.60;63.80
4376;DHT22;2202;50.866;12.750;2024-03-07T10:48:39;4.60;61.80
4376;DHT22;2202;50.866;12.750;2024-03-07T10:51:18;4.60;62.40
4376;DHT22;2202;50.866;12.750;2024-03-07T10:53:56;4.70;63.40
4376;DHT22;2202;50.866;12.750;2024-03-07T10:56:34;4.70;61.80
4376;DHT22;2202;50.866;12.750;2024-03-07T10:59:11;4.70;62.20
4376;DHT22;2202;50.866;12.750;2024-03-07T11:01:47;4.80;62.40
4376;DHT22;2202;50.866;12.750;2024-03-07T11:04:18;4.80;62.00
4376;DHT22;2202;50.866;12.750;2024-03-07T11:06:47;4.80;63.40
4376;DHT22;2202;50.866;12.750;2024-03-07T11:09:17;4.90;62.20
4376;DHT22;2202;50.866;12.750;2024-03-07T11:11:49;5.10;61.20
4376;DHT22;2202;50.866;12.750;2024-03-07T11:14:17;5.10;63.00
4376;DHT22;2202;50.866;12.750;2024-03-07T11:16:45;5.30;61.60
4376;DHT22;2202;50.866;12.750;2024-03-07T11:19:20;5.40;61.20
4376;DHT22;2202;50.866;12.750;2024-03-07T11:21:48;5.50;58.70
4376;DHT22;2202;50.866;12.750;2024-03-07T11:24:24;5.50;59.40
4376;DHT22;2202;50.866;12.750;2024-03-07T11:26:52;5.40;59.40
4376;DHT22;2202;50.866;12.750;2024-03-07T11:29:47;5.50;62.20
4376;DHT22;2202;50.866;12.750;2024-03-07T11:32:18;5.90;58.50
4376;DHT22;2202;50.866;12.750;2024-03-07T11:34:47;6.00;57.30
4376;DHT22;2202;50.866;12.750;2024-03-07T11:37:18;6.00;56.90
4376;DHT22;2202;50.866;12.750;2024-03-07T11:39:50;5.80;58.50
4376;DHT22;2202;50.866;12.750;2024-03-07T11:42:20;5.70;56.70
4376;DHT22;2202;50.866;12.750;2024-03-07T11:44:48;5.60;56.70
4376;DHT22;2202;50.866;12.750;2024-03-07T11:47:16;5.60;57.30
4376;DHT22;2202;50.866;12.750;2024-03-07T11:49:44;5.60;58.70
4376;DHT22;2202;50.866;12.750;2024-03-07T11:52:14;5.60;58.50
4376;DHT22;2202;50.866;12.750;2024-03-07T11:54:42;5.70;59.60
4376;DHT22;2202;50.866;12.750;2024-03-07T11:57:15;5.90;59.00
4376;DHT22;2202;50.866;12.750;2024-03-07T11:59:45;5.90;56.60
4376;DHT22;2202;50.866;12.750;2024-03-07T12:02:12;5.80;56.90
4376;DHT22;2202;50.866;12.750;2024-03-07T12:04:41;5.70;59.20
4376;DHT22;2202;50.866;12.750;2024-03-07T12:07:08;5.80;58.00
4376;DHT22;2202;50.866;12.750;2024-03-07T12:09:37;5.80;58.00
4376;DHT22;2202;50.866;12.750;2024-03-07T12:12:04;5.90;59.20
4376;DHT22;2202;50.866;12.750;2024-03-07T12:14:33;6.10;58.90
4376;DHT22;2202;50.866;12.750;2024-03-07T12:17:00;6.10;57.40
4376;DHT22;2202;50.866;12.750;2024-03-07T12:19:30;6.00;56.00
4376;DHT22;2202;50.866;12.750;2024-03-07T12:22:00;5.80;57.10
4376;DHT22;2202;50.866;12.750;2024-03-07T12:24:28;5.80;57.60
4376;DHT22;2202;50.866;12.750;2024-03-07T12:27:05;5.70;57.30
4376;DHT22;2202;50.866;12.750;2024-03-07T12:29:34;5.40;58.50
4376;DHT22;2202;50.866;12.750;2024-03-07T12:32:03;5.40;59.00
4376;DHT22;2202;50.866;12.750;2024-03-07T12:34:32;5.50;56.70
4376;DHT22;2202;50.866;12.750;2024-03-07T12:37:02;5.40;57.80
4376;DHT22;2202;50.866;12.750;2024-03-07T12:39:32;5.50;57.80
4376;DHT22;2202;50.866;12.750;2024-03-07T12:42:02;5.40;57.80
4376;DHT22;2202;50.866;12.750;2024-03-07T12:44:40;5.20;56.70
4376;DHT22;2202;50.866;12.750;2024-03-07T12:47:09;5.20;58.30
4376;DHT22;2202;50.866;12.750;2024-03-07T12:49:36;5.30;58.20
4376;DHT22;2202;50.866;12.750;2024-03-07T12:52:05;5.30;59.00
4376;DHT22;2202;50.866;12.750;2024-03-07T12:54:33;5.50;58.50
4376;DHT22;2202;50.866;12.750;2024-03-07T12:57:00;5.60;58.70
4376;DHT22;2202;50.866;12.750;2024-03-07T12:59:30;5.60;59.20
4376;DHT22;2202;50.866;12.750;2024-03-07T13:01:59;5.60;58.20
4376;DHT22;2202;50.866;12.750;2024-03-07T13:04:26;5.60;58.50
4376;DHT22;2202;50.866;12.750;2024-03-07T13:06:53;5.60;58.50
4376;DHT22;2202;50.866;12.750;2024-03-07T13:09:19;5.60;57.60
4376;DHT22;2202;50.866;12.750;2024-03-07T13:11:52;5.60;58.20
4376;DHT22;2202;50.866;12.750;2024-03-07T13:14:19;5.50;58.30
4376;DHT22;2202;50.866;12.750;2024-03-07T13:16:46;5.60;60.20
4376;DHT22;2202;50.866;12.750;2024-03-07T13:19:14;5.70;59.20
4376;DHT22;2202;50.866;12.750;2024-03-07T13:21:46;5.70;58.90
4376;DHT22;2202;50.866;12.750;2024-03-07T13:24:14;5.80;59.20
4376;DHT22;2202;50.866;12.750;2024-03-07T13:26:41;5.70;57.30
4376;DHT22;2202;50.866;12.750;2024-03-07T13:29:09;5.50;58.70
4376;DHT22;2202;50.866;12.750;2024-03-07T13:31:35;5.70;59.00
4376;DHT22;2202;50.866;12.750;2024-03-07T13:34:02;5.80;59.60
4376;DHT22;2202;50.866;12.750;2024-03-07T13:36:30;6.00;58.90
4376;DHT22;2202;50.866;12.750;2024-03-07T13:38:57;6.20;58.20
4376;DHT22;2202;50.866;12.750;2024-03-07T13:41:24;6.30;56.90
4376;DHT22;2202;50.866;12.750;2024-03-07T13:43:53;6.30;56.60
4376;DHT22;2202;50.866;12.750;2024-03-07T13:46:20;6.20;58.30
4376;DHT22;2202;50.866;12.750;2024-03-07T13:48:47;6.20;57.40
4376;DHT22;2202;50.866;12.750;2024-03-07T13:51:14;6.30;58.90
4376;DHT22;2202;50.866;12.750;2024-03-07T13:53:44;6.40;57.30
4376;DHT22;2202;50.866;12.750;2024-03-07T13:56:39;6.40;58.70
4376;DHT22;2202;50.866;12.750;2024-03-07T14:02:14;6.40;59.20
4376;DHT22;2202;50.866;12.750;2024-03-07T14:07:50;5.80;59.80
4376;DHT22;2202;50.866;12.750;2024-03-07T14:10:56;5.50;61.00
4376;DHT22;2202;50.866;12.750;2024-03-07T14:13:42;5.30;62.60
4376;DHT22;2202;50.866;12.750;2024-03-07T14:16:44;5.20;63.20
4376;DHT22;2202;50.866;12.750;2024-03-07T14:19:54;5.10;64.00
4376;DHT22;2202;50.866;12.750;2024-03-07T14:22:39;5.00;64.60
4376;DHT22;2202;50.866;12.750;2024-03-07T14:25:28;5.10;63.80
4376;DHT22;2202;50.866;12.750;2024-03-07T14:28:17;4.90;63.60
4376;DHT22;2202;50.866;12.750;2024-03-07T14:30:50;4.80;64.40
4376;DHT22;2202;50.866;12.750;2024-03-07T14:33:20;4.90;65.00
4376;DHT22;2202;50.866;12.750;2024-03-07T14:36:00;4.90;65.40
4376;DHT22;2202;50.866;12.750;2024-03-07T14:38:40;4.80;64.40
4376;DHT22;2202;50.866;12.750;2024-03-07T14:41:11;4.80;65.00
4376;DHT22;2202;50.866;12.750;2024-03-07T14:43:42;4.80;65.20
4376;DHT22;2202;50.866;12.750;2024-03-07T14:46:09;4.80;63.80
4376;DHT22;2202;50.866;12.750;2024-03-07T14:48:38;4.70;64.20
4376;DHT22;2202;50.866;12.750;2024-03-07T14:51:07;4.70;64.80
4376;DHT22;2202;50.866;12.750;2024-03-07T14:53:34;4.60;64.00
4376;DHT22;2202;50.866;12.750;2024-03-07T14:56:01;4.70;65.00
4376;DHT22;2202;50.866;12.750;2024-03-07T14:58:30;4.80;64.40
4376;DHT22;2202;50.866;12.750;2024-03-07T15:00:58;4.70;64.60
4376;DHT22;2202;50.866;12.750;2024-03-07T15:03:27;4.70;64.20
4376;DHT22;2202;50.866;12.750;2024-03-07T15:05:54;4.40;64.60
4376;DHT22;2202;50.866;12.750;2024-03-07T15:08:21;4.30;64.60
4376;DHT22;2202;50.866;12.750;2024-03-07T15:10:53;4.20;65.40
4376;DHT22;2202;50.866;12.750;2024-03-07T15:13:21;4.10;65.20
4376;DHT22;2202;50.866;12.750;2024-03-07T15:15:48;4.20;65.20
4376;DHT22;2202;50.866;12.750;2024-03-07T15:18:16;4.20;65.60
4376;DHT22;2202;50.866;12.750;2024-03-07T15:20:43;4.30;63.40
4376;DHT22;2202;50.866;12.750;2024-03-07T15:23:12;4.30;63.20
4376;DHT22;2202;50.866;12.750;2024-03-07T15:25:39;4.30;63.60
4376;DHT22;2202;50.866;12.750;2024-03-07T15:28:06;4.40;62.80
4376;DHT22;2202;50.866;12.750;2024-03-07T15:30:33;4.50;61.80
4376;DHT22;2202;50.866;12.750;2024-03-07T15:33:02;4.40;62.60
4376;DHT22;2202;50.866;12.750;2024-03-07T15:35:31;4.40;63.00
4376;DHT22;2202;50.866;12.750;2024-03-07T15:37:58;4.40;64.00
4376;DHT22;2202;50.866;12.750;2024-03-07T15:40:25;4.30;62.80
4376;DHT22;2202;50.866;12.750;2024-03-07T15:42:55;4.30;63.20
4376;DHT22;2202;50.866;12.750;2024-03-07T15:45:23;4.20;63.60
4376;DHT22;2202;50.866;12.750;2024-03-07T15:47:52;4.20;62.80
4376;DHT22;2202;50.866;12.750;2024-03-07T15:50:19;4.10;62.80
4376;DHT22;2202;50.866;12.750;2024-03-07T15:52:49;4.10;64.00
4376;DHT22;2202;50.866;12.750;2024-03-07T15:55:17;4.10;63.40
4376;DHT22;2202;50.866;12.750;2024-03-07T15:57:45;4.10;63.60
4376;DHT22;2202;50.866;12.750;2024-03-07T16:00:15;4.00;63.00
4376;DHT22;2202;50.866;12.750;2024-03-07T16:02:51;4.00;64.00
4376;DHT22;2202;50.866;12.750;2024-03-07T16:05:18;3.90;64.20
4376;DHT22;2202;50.866;12.750;2024-03-07T16:07:45;3.90;63.00
4376;DHT22;2202;50.866;12.750;2024-03-07T16:10:14;3.90;63.40
4376;DHT22;2202;50.866;12.750;2024-03-07T16:12:40;3.80;63.00
4376;DHT22;2202;50.866;12.750;2024-03-07T16:15:08;3.80;63.60
4376;DHT22;2202;50.866;12.750;2024-03-07T16:17:35;3.70;64.00